sensor_id;sensor_type;location;lat;lon;timestamp;temperature;humidity
796;DHT22;381;48.770;9.188;2024-02-26T00:05:00;9.60;91.70
796;DHT22;381;48.770;9.188;2024-02-26T00:10:03;9.50;91.80
796;DHT22;381;48.770;9.188;2024-02-26T00:15:06;9.40;91.90
796;DHT22;381;48.770;9.188;2024-02-26T00:20:11;9.30;91.90
796;DHT22;381;48.770;9.188;2024-02-26T00:25:14;9.30;91.90
796;DHT22;381;48.770;9.188;2024-02-26T00:30:17;9.30;92.00
796;DHT22;381;48.770;9.188;2024-02-26T00:35:20;9.40;92.00
796;DHT22;381;48.770;9.188;2024-02-26T00:40:23;9.40;91.70
796;DHT22;381;48.770;9.188;2024-02-26T00:45:25;9.40;91.70
796;DHT22;381;48.770;9.188;2024-02-26T00:50:29;9.30;91.80
796;DHT22;381;48.770;9.188;2024-02-26T00:55:31;9.30;92.10
796;DHT22;381;48.770;9.188;2024-02-26T01:00:33;9.30;92.10
796;DHT22;381;48.770;9.188;2024-02-26T01:05:37;9.30;92.10
796;DHT22;381;48.770;9.188;2024-02-26T01:10:39;9.30;92.10
796;DHT22;381;48.770;9.188;2024-02-26T01:15:42;9.30;92.30
796;DHT22;381;48.770;9.188;2024-02-26T01:20:47;9.40;91.80
796;DHT22;381;48.770;9.188;2024-02-26T01:25:49;9.40;92.00
796;DHT22;381;48.770;9.188;2024-02-26T01:30:51;9.40;92.10
796;DHT22;381;48.770;9.188;2024-02-26T01:35:55;9.40;91.90
796;DHT22;381;48.770;9.188;2024-02-26T01:40:57;9.40;91.90
796;DHT22;381;48.770;9.188;2024-02-26T01:46:00;9.40;92.10
796;DHT22;381;48.770;9.188;2024-02-26T01:51:04;9.40;92.00
796;DHT22;381;48.770;9.188;2024-02-26T01:56:06;9.40;92.20
796;DHT22;381;48.770;9.188;2024-02-26T02:01:09;9.40;92.20
796;DHT22;381;48.770;9.188;2024-02-26T02:06:14;9.40;92.10
796;DHT22;381;48.770;9.188;2024-02-26T02:11:17;9.40;92.10
796;DHT22;381;48.770;9.188;2024-02-26T02:16:19;9.40;92.30
796;DHT22;381;48.770;9.188;2024-02-26T02:21:23;9.40;92.30
796;DHT22;381;48.770;9.188;2024-02-26T02:26:26;9.40;92.30
796;DHT22;381;48.770;9.188;2024-02-26T02:31:28;9.40;92.30
796;DHT22;381;48.770;9.188;2024-02-26T02:36:32;9.40;92.20
796;DHT22;381;48.770;9.188;2024-02-26T02:41:34;9.40;92.10
796;DHT22;381;48.770;9.188;2024-02-26T02:46:37;9.40;91.90
796;DHT22;381;48.770;9.188;2024-02-26T02:51:41;9.40;92.20
796;DHT22;381;48.770;9.188;2024-02-26T02:56:43;9.50;91.70
796;DHT22;381;48.770;9.188;2024-02-26T03:01:45;9.50;91.60
796;DHT22;381;48.770;9.188;2024-02-26T03:06:49;9.50;91.40
796;DHT22;381;48.770;9.188;2024-02-26T03:11:51;9.50;91.30
796;DHT22;381;48.770;9.188;2024-02-26T03:16:54;9.50;91.50
796;DHT22;381;48.770;9.188;2024-02-26T03:21:58;9.60;92.70
796;DHT22;381;48.770;9.188;2024-02-26T03:27:00;9.60;92.70
796;DHT22;381;48.770;9.188;2024-02-26T03:32:03;9.60;92.70
796;DHT22;381;48.770;9.188;2024-02-26T03:37:07;9.60;92.50
796;DHT22;381;48.770;9.188;2024-02-26T03:42:11;9.60;92.70
796;DHT22;381;48.770;9.188;2024-02-26T03:47:14;9.60;93.10
796;DHT22;381;48.770;9.188;2024-02-26T03:52:17;9.60;93.40
796;DHT22;381;48.770;9.188;2024-02-26T03:57:20;9.60;94.00
796;DHT22;381;48.770;9.188;2024-02-26T04:02:22;9.50;93.70
796;DHT22;381;48.770;9.188;2024-02-26T04:07:26;9.50;91.50
796;DHT22;381;48.770;9.188;2024-02-26T04:12:28;9.50;91.90
796;DHT22;381;48.770;9.188;2024-02-26T04:17:30;9.50;92.10
796;DHT22;381;48.770;9.188;2024-02-26T04:22:34;9.50;92.40
796;DHT22;381;48.770;9.188;2024-02-26T04:27:36;9.50;92.60
796;DHT22;381;48.770;9.188;2024-02-26T04:32:39;9.50;93.10
796;DHT22;381;48.770;9.188;2024-02-26T04:37:43;9.60;92.90
796;DHT22;381;48.770;9.188;2024-02-26T04:42:45;9.60;92.80
796;DHT22;381;48.770;9.188;2024-02-26T04:47:47;9.60;92.50
796;DHT22;381;48.770;9.188;2024-02-26T04:52:51;9.60;92.20
796;DHT22;381;48.770;9.188;2024-02-26T04:57:53;9.60;91.90
796;DHT22;381;48.770;9.188;2024-02-26T05:02:56;9.50;91.90
796;DHT22;381;48.770;9.188;2024-02-26T05:08:00;9.50;91.90
796;DHT22;381;48.770;9.188;2024-02-26T05:13:04;9.50;92.00
796;DHT22;381;48.770;9.188;2024-02-26T05:18:07;9.60;91.90
796;DHT22;381;48.770;9.188;2024-02-26T05:23:11;9.60;91.80
796;DHT22;381;48.770;9.188;2024-02-26T05:28:13;9.60;91.10
796;DHT22;381;48.770;9.188;2024-02-26T05:33:16;9.60;91.00
796;DHT22;381;48.770;9.188;2024-02-26T05:38:20;9.60;91.30
796;DHT22;381;48.770;9.188;2024-02-26T05:43:22;9.70;91.90
796;DHT22;381;48.770;9.188;2024-02-26T05:48:25;9.70;92.70
796;DHT22;381;48.770;9.188;2024-02-26T05:53:28;9.70;93.00
796;DHT22;381;48.770;9.188;2024-02-26T05:58:30;9.70;93.60
796;DHT22;381;48.770;9.188;2024-02-26T06:03:33;9.60;94.20
796;DHT22;381;48.770;9.188;2024-02-26T06:08:37;9.50;94.80
796;DHT22;381;48.770;9.188;2024-02-26T06:13:39;9.50;95.40
796;DHT22;381;48.770;9.188;2024-02-26T06:18:42;9.40;95.80
796;DHT22;381;48.770;9.188;2024-02-26T06:23:46;9.30;96.10
796;DHT22;381;48.770;9.188;2024-02-26T06:28:48;9.20;96.50
796;DHT22;381;48.770;9.188;2024-02-26T06:33:53;9.10;96.90
796;DHT22;381;48.770;9.188;2024-02-26T06:39:00;9.10;97.20
796;DHT22;381;48.770;9.188;2024-02-26T06:44:02;9.00;97.30
796;DHT22;381;48.770;9.188;2024-02-26T06:49:05;9.00;97.60
796;DHT22;381;48.770;9.188;2024-02-26T06:54:08;8.90;97.80
796;DHT22;381;48.770;9.188;2024-02-26T06:59:11;8.90;97.90
796;DHT22;381;48.770;9.188;2024-02-26T07:04:13;8.90;98.00
796;DHT22;381;48.770;9.188;2024-02-26T07:09:17;9.00;98.00
796;DHT22;381;48.770;9.188;2024-02-26T07:14:19;9.00;98.20
796;DHT22;381;48.770;9.188;2024-02-26T07:19:21;9.10;97.90
796;DHT22;381;48.770;9.188;2024-02-26T07:24:25;9.20;97.80
796;DHT22;381;48.770;9.188;2024-02-26T07:29:27;9.30;98.00
796;DHT22;381;48.770;9.188;2024-02-26T07:34:30;9.30;97.90
796;DHT22;381;48.770;9.188;2024-02-26T07:39:34;9.40;97.70
796;DHT22;381;48.770;9.188;2024-02-26T07:44:36;9.50;97.60
796;DHT22;381;48.770;9.188;2024-02-26T07:49:39;9.60;97.60
796;DHT22;381;48.770;9.188;2024-02-26T07:54:43;9.70;97.50
796;DHT22;381;48.770;9.188;2024-02-26T07:59:45;9.80;97.70
796;DHT22;381;48.770;9.188;2024-02-26T08:04:50;9.90;97.40
796;DHT22;381;48.770;9.188;2024-02-26T08:09:54;10.00;96.50
796;DHT22;381;48.770;9.188;2024-02-26T08:14:57;10.10;96.50
796;DHT22;381;48.770;9.188;2024-02-26T08:19:59;10.20;96.40
796;DHT22;381;48.770;9.188;2024-02-26T08:25:03;10.40;96.30
796;DHT22;381;48.770;9.188;2024-02-26T08:30:08;10.50;94.30
796;DHT22;381;48.770;9.188;2024-02-26T08:35:11;10.50;94.20
796;DHT22;381;48.770;9.188;2024-02-26T08:40:15;10.50;93.50
796;DHT22;381;48.770;9.188;2024-02-26T08:45:17;10.60;93.30
796;DHT22;381;48.770;9.188;2024-02-26T08:50:20;10.70;92.10
796;DHT22;381;48.770;9.188;2024-02-26T08:55:24;10.70;91.70
796;DHT22;381;48.770;9.188;2024-02-26T09:00:26;10.80;92.30
796;DHT22;381;48.770;9.188;2024-02-26T09:05:28;10.90;91.80
796;DHT22;381;48.770;9.188;2024-02-26T09:10:32;11.00;92.60
796;DHT22;381;48.770;9.188;2024-02-26T09:15:35;11.10;93.00
796;DHT22;381;48.770;9.188;2024-02-26T09:20:37;11.20;92.90
796;DHT22;381;48.770;9.188;2024-02-26T09:25:41;11.30;92.80
796;DHT22;381;48.770;9.188;2024-02-26T09:30:43;11.30;92.90
796;DHT22;381;48.770;9.188;2024-02-26T09:35:46;11.40;93.20
796;DHT22;381;48.770;9.188;2024-02-26T09:40:50;11.50;93.10
796;DHT22;381;48.770;9.188;2024-02-26T09:45:54;11.60;93.00
796;DHT22;381;48.770;9.188;2024-02-26T09:50:56;11.60;93.30
796;DHT22;381;48.770;9.188;2024-02-26T09:56:00;11.60;93.20
796;DHT22;381;48.770;9.188;2024-02-26T10:01:03;11.70;92.20
796;DHT22;381;48.770;9.188;2024-02-26T10:06:10;11.80;90.40
796;DHT22;381;48.770;9.188;2024-02-26T10:11:15;11.90;90.70
796;DHT22;381;48.770;9.188;2024-02-26T10:16:18;12.00;91.20
796;DHT22;381;48.770;9.188;2024-02-26T10:21:21;12.10;91.70
796;DHT22;381;48.770;9.188;2024-02-26T10:26:25;12.20;91.70
796;DHT22;381;48.770;9.188;2024-02-26T10:31:27;12.30;91.00
796;DHT22;381;48.770;9.188;2024-02-26T10:36:33;12.40;91.40
796;DHT22;381;48.770;9.188;2024-02-26T10:41:37;12.40;91.00
796;DHT22;381;48.770;9.188;2024-02-26T10:46:40;12.40;90.90
796;DHT22;381;48.770;9.188;2024-02-26T10:51:44;12.40;90.60
796;DHT22;381;48.770;9.188;2024-02-26T10:56:49;12.50;90.20
796;DHT22;381;48.770;9.188;2024-02-26T11:01:52;12.60;89.60
796;DHT22;381;48.770;9.188;2024-02-26T11:06:57;12.60;90.50
796;DHT22;381;48.770;9.188;2024-02-26T11:12:02;12.60;89.50
796;DHT22;381;48.770;9.188;2024-02-26T11:17:09;12.60;90.20
796;DHT22;381;48.770;9.188;2024-02-26T11:22:13;12.60;90.70
796;DHT22;381;48.770;9.188;2024-02-26T11:27:18;12.50;90.90
796;DHT22;381;48.770;9.188;2024-02-26T11:32:21;12.40;91.10
796;DHT22;381;48.770;9.188;2024-02-26T11:37:24;12.40;91.90
796;DHT22;381;48.770;9.188;2024-02-26T11:42:29;12.40;92.40
796;DHT22;381;48.770;9.188;2024-02-26T11:47:35;12.60;90.30
796;DHT22;381;48.770;9.188;2024-02-26T11:52:37;12.80;90.40
796;DHT22;381;48.770;9.188;2024-02-26T11:57:41;13.00;90.50
796;DHT22;381;48.770;9.188;2024-02-26T12:02:47;13.20;90.70
796;DHT22;381;48.770;9.188;2024-02-26T12:07:52;13.40;90.60
796;DHT22;381;48.770;9.188;2024-02-26T12:13:00;13.50;90.70
796;DHT22;381;48.770;9.188;2024-02-26T12:18:04;13.60;91.30
796;DHT22;381;48.770;9.188;2024-02-26T12:23:07;13.60;90.90
796;DHT22;381;48.770;9.188;2024-02-26T12:28:11;13.60;90.80
796;DHT22;381;48.770;9.188;2024-02-26T12:33:13;13.50;91.10
796;DHT22;381;48.770;9.188;2024-02-26T12:38:16;13.50;91.10
796;DHT22;381;48.770;9.188;2024-02-26T12:43:19;13.50;91.40
796;DHT22;381;48.770;9.188;2024-02-26T12:48:22;13.50;91.70
796;DHT22;381;48.770;9.188;2024-02-26T12:53:25;13.60;91.30
796;DHT22;381;48.770;9.188;2024-02-26T12:58:29;13.70;90.60
796;DHT22;381;48.770;9.188;2024-02-26T13:03:33;13.70;91.00
796;DHT22;381;48.770;9.188;2024-02-26T13:08:36;13.60;90.00
796;DHT22;381;48.770;9.188;2024-02-26T13:13:40;13.60;90.80
796;DHT22;381;48.770;9.188;2024-02-26T13:18:43;13.60;90.60
796;DHT22;381;48.770;9.188;2024-02-26T13:23:48;13.70;90.10
796;DHT22;381;48.770;9.188;2024-02-26T13:29:01;13.80;89.40
796;DHT22;381;48.770;9.188;2024-02-26T13:34:04;13.80;89.20
796;DHT22;381;48.770;9.188;2024-02-26T13:39:06;13.90;89.00
796;DHT22;381;48.770;9.188;2024-02-26T13:44:15;13.90;90.10
796;DHT22;381;48.770;9.188;2024-02-26T13:49:17;14.00;89.10
796;DHT22;381;48.770;9.188;2024-02-26T13:54:20;14.00;89.50
796;DHT22;381;48.770;9.188;2024-02-26T13:59:23;14.00;90.10
796;DHT22;381;48.770;9.188;2024-02-26T14:04:26;14.00;86.90
796;DHT22;381;48.770;9.188;2024-02-26T14:09:28;14.00;89.00
796;DHT22;381;48.770;9.188;2024-02-26T14:14:32;14.00;88.20
796;DHT22;381;48.770;9.188;2024-02-26T14:19:37;13.90;88.40
796;DHT22;381;48.770;9.188;2024-02-26T14:24:40;13.80;87.90
796;DHT22;381;48.770;9.188;2024-02-26T14:29:44;13.80;86.10
796;DHT22;381;48.770;9.188;2024-02-26T14:34:47;13.70;85.90
796;DHT22;381;48.770;9.188;2024-02-26T14:39:49;13.60;87.10
796;DHT22;381;48.770;9.188;2024-02-26T14:44:54;13.60;85.30
796;DHT22;381;48.770;9.188;2024-02-26T14:49:56;13.60;82.90
796;DHT22;381;48.770;9.188;2024-02-26T14:54:58;13.50;83.90
796;DHT22;381;48.770;9.188;2024-02-26T15:00:02;13.50;83.30
796;DHT22;381;48.770;9.188;2024-02-26T15:05:06;13.50;84.90
796;DHT22;381;48.770;9.188;2024-02-26T15:10:12;13.50;86.60
796;DHT22;381;48.770;9.188;2024-02-26T15:15:16;13.50;86.90
796;DHT22;381;48.770;9.188;2024-02-26T15:20:19;13.50;88.50
796;DHT22;381;48.770;9.188;2024-02-26T15:25:21;13.50;88.20
796;DHT22;381;48.770;9.188;2024-02-26T15:30:25;13.50;88.90
796;DHT22;381;48.770;9.188;2024-02-26T15:35:29;13.40;89.30
796;DHT22;381;48.770;9.188;2024-02-26T15:40:31;13.40;89.80
796;DHT22;381;48.770;9.188;2024-02-26T15:45:35;13.30;90.60
796;DHT22;381;48.770;9.188;2024-02-26T15:50:38;13.20;89.90
796;DHT22;381;48.770;9.188;2024-02-26T15:55:42;13.20;90.50
796;DHT22;381;48.770;9.188;2024-02-26T16:00:46;13.10;90.90
796;DHT22;381;48.770;9.188;2024-02-26T16:05:48;13.00;91.60
796;DHT22;381;48.770;9.188;2024-02-26T16:10:51;12.90;91.90
796;DHT22;381;48.770;9.188;2024-02-26T16:15:59;12.80;92.30
796;DHT22;381;48.770;9.188;2024-02-26T16:21:04;12.70;92.30
796;DHT22;381;48.770;9.188;2024-02-26T16:26:06;12.60;92.90
796;DHT22;381;48.770;9.188;2024-02-26T16:31:10;12.50;93.40
796;DHT22;381;48.770;9.188;2024-02-26T16:36:12;12.40;93.90
796;DHT22;381;48.770;9.188;2024-02-26T16:41:14;12.30;94.00
796;DHT22;381;48.770;9.188;2024-02-26T16:46:18;12.30;94.40
796;DHT22;381;48.770;9.188;2024-02-26T16:51:21;12.20;94.80
796;DHT22;381;48.770;9.188;2024-02-26T16:56:23;12.10;94.80
796;DHT22;381;48.770;9.188;2024-02-26T17:01:27;12.10;94.90
796;DHT22;381;48.770;9.188;2024-02-26T17:06:29;12.10;94.30
796;DHT22;381;48.770;9.188;2024-02-26T17:11:32;12.10;93.40
796;DHT22;381;48.770;9.188;2024-02-26T17:16:38;12.20;92.90
796;DHT22;381;48.770;9.188;2024-02-26T17:21:40;12.20;93.10
796;DHT22;381;48.770;9.188;2024-02-26T17:26:50;12.10;93.60
796;DHT22;381;48.770;9.188;2024-02-26T17:31:53;12.10;93.90
796;DHT22;381;48.770;9.188;2024-02-26T17:36:55;12.00;94.20
796;DHT22;381;48.770;9.188;2024-02-26T17:42:00;11.90;93.90
796;DHT22;381;48.770;9.188;2024-02-26T17:47:02;11.90;93.90
796;DHT22;381;48.770;9.188;2024-02-26T17:52:05;11.90;93.70
796;DHT22;381;48.770;9.188;2024-02-26T17:57:09;11.80;93.90
796;DHT22;381;48.770;9.188;2024-02-26T18:02:11;11.80;94.30
796;DHT22;381;48.770;9.188;2024-02-26T18:07:13;11.80;94.40
796;DHT22;381;48.770;9.188;2024-02-26T18:12:17;11.70;94.10
796;DHT22;381;48.770;9.188;2024-02-26T18:17:19;11.70;93.40
796;DHT22;381;48.770;9.188;2024-02-26T18:22:23;11.80;93.10
796;DHT22;381;48.770;9.188;2024-02-26T18:27:27;11.70;93.10
796;DHT22;381;48.770;9.188;2024-02-26T18:32:31;11.70;92.90
796;DHT22;381;48.770;9.188;2024-02-26T18:37:33;11.70;92.80
796;DHT22;381;48.770;9.188;2024-02-26T18:42:37;11.70;92.90
796;DHT22;381;48.770;9.188;2024-02-26T18:47:40;11.70;93.20
796;DHT22;381;48.770;9.188;2024-02-26T18:52:43;11.70;93.20
796;DHT22;381;48.770;9.188;2024-02-26T18:57:48;11.70;93.70
796;DHT22;381;48.770;9.188;2024-02-26T19:02:50;11.70;93.60
796;DHT22;381;48.770;9.188;2024-02-26T19:07:53;11.70;93.50
796;DHT22;381;48.770;9.188;2024-02-26T19:13:00;11.70;93.30
796;DHT22;381;48.770;9.188;2024-02-26T19:18:03;11.60;93.20
796;DHT22;381;48.770;9.188;2024-02-26T19:23:07;11.60;92.90
796;DHT22;381;48.770;9.188;2024-02-26T19:28:12;11.60;92.70
796;DHT22;381;48.770;9.188;2024-02-26T19:33:15;11.60;92.80
796;DHT22;381;48.770;9.188;2024-02-26T19:38:18;11.50;93.00
796;DHT22;381;48.770;9.188;2024-02-26T19:43:21;11.50;93.10
796;DHT22;381;48.770;9.188;2024-02-26T19:48:24;11.40;93.40
796;DHT22;381;48.770;9.188;2024-02-26T19:53:26;11.40;93.50
796;DHT22;381;48.770;9.188;2024-02-26T19:58:30;11.30;93.00
796;DHT22;381;48.770;9.188;2024-02-26T20:03:32;11.30;93.50
796;DHT22;381;48.770;9.188;2024-02-26T20:08:35;11.30;93.10
796;DHT22;381;48.770;9.188;2024-02-26T20:13:39;11.30;93.20
796;DHT22;381;48.770;9.188;2024-02-26T20:18:43;11.30;92.90
796;DHT22;381;48.770;9.188;2024-02-26T20:23:45;11.30;92.60
796;DHT22;381;48.770;9.188;2024-02-26T20:28:49;11.30;92.80
796;DHT22;381;48.770;9.188;2024-02-26T20:33:52;11.30;92.80
796;DHT22;381;48.770;9.188;2024-02-26T20:38:54;11.30;93.20
796;DHT22;381;48.770;9.188;2024-02-26T20:43:58;11.30;93.20
796;DHT22;381;48.770;9.188;2024-02-26T20:49:01;11.30;93.10
796;DHT22;381;48.770;9.188;2024-02-26T20:54:03;11.30;93.30
796;DHT22;381;48.770;9.188;2024-02-26T20:59:11;11.30;93.20
796;DHT22;381;48.770;9.188;2024-02-26T21:04:13;11.30;93.30
796;DHT22;381;48.770;9.188;2024-02-26T21:09:16;11.30;93.30
796;DHT22;381;48.770;9.188;2024-02-26T21:14:20;11.30;93.50
796;DHT22;381;48.770;9.188;2024-02-26T21:19:23;11.30;93.60
796;DHT22;381;48.770;9.188;2024-02-26T21:24:25;11.30;94.50
796;DHT22;381;48.770;9.188;2024-02-26T21:29:29;11.10;94.80
796;DHT22;381;48.770;9.188;2024-02-26T21:34:31;11.00;95.40
796;DHT22;381;48.770;9.188;2024-02-26T21:39:35;11.00;95.80
796;DHT22;381;48.770;9.188;2024-02-26T21:44:38;11.00;94.90
796;DHT22;381;48.770;9.188;2024-02-26T21:49:41;11.00;95.60
796;DHT22;381;48.770;9.188;2024-02-26T21:54:48;11.00;95.70
796;DHT22;381;48.770;9.188;2024-02-26T21:59:52;11.00;96.10
796;DHT22;381;48.770;9.188;2024-02-26T22:04:54;11.10;96.50
796;DHT22;381;48.770;9.188;2024-02-26T22:09:56;11.10;96.90
796;DHT22;381;48.770;9.188;2024-02-26T22:15:00;11.10;96.90
796;DHT22;381;48.770;9.188;2024-02-26T22:20:06;11.10;96.70
796;DHT22;381;48.770;9.188;2024-02-26T22:25:09;11.10;96.90
796;DHT22;381;48.770;9.188;2024-02-26T22:30:13;11.10;96.70
796;DHT22;381;48.770;9.188;2024-02-26T22:35:15;11.00;96.70
796;DHT22;381;48.770;9.188;2024-02-26T22:40:18;11.00;97.10
796;DHT22;381;48.770;9.188;2024-02-26T22:45:22;10.90;97.50
796;DHT22;381;48.770;9.188;2024-02-26T22:50:25;10.90;97.40
796;DHT22;381;48.770;9.188;2024-02-26T22:55:27;10.80;97.50
796;DHT22;381;48.770;9.188;2024-02-26T23:00:31;10.80;97.70
796;DHT22;381;48.770;9.188;2024-02-26T23:05:36;10.80;97.70
796;DHT22;381;48.770;9.188;2024-02-26T23:10:39;10.80;97.70
796;DHT22;381;48.770;9.188;2024-02-26T23:15:42;10.80;97.80
796;DHT22;381;48.770;9.188;2024-02-26T23:20:45;10.80;97.30
796;DHT22;381;48.770;9.188;2024-02-26T23:25:47;10.90;97.40
796;DHT22;381;48.770;9.188;2024-02-26T23:30:51;10.90;96.80
796;DHT22;381;48.770;9.188;2024-02-26T23:35:53;10.90;96.50
796;DHT22;381;48.770;9.188;2024-02-26T23:40:56;11.00;96.80
796;DHT22;381;48.770;9.188;2024-02-26T23:45:59;11.00;97.00
796;DHT22;381;48.770;9.188;2024-02-26T23:51:02;11.00;97.00
796;DHT22;381;48.770;9.188;2024-02-26T23:56:05;11.00;97.20
